Time;durP1;ratioP1;P1;durP2;ratioP2;P2;SDS_P1;SDS_P2;PMS_P1;PMS_P2;Temp;Humidity;BMP_temperature;BMP_pressure;BME280_temperature;BME280_humidity;BME280_pressure;Samples;Min_cycle;Max_cycle;Signal;HPM_P1;HPM_P2
2021/05/23 00:00:36;;;;;;;3.40;1.77;;;19.80;82.20;;;;;;4998119;28;20091;-77
2021/05/23 00:03:14;;;;;;;3.63;1.95;;;19.20;83.60;;;;;;5000784;28;20034;-78
2021/05/23 00:05:43;;;;;;;1.92;1.58;;;18.60;85.20;;;;;;4994909;28;20038;-76
2021/05/23 00:08:13;;;;;;;3.42;1.25;;;18.10;87.90;;;;;;5005112;28;20026;-78
2021/05/23 00:10:51;;;;;;;4.75;1.70;;;18.10;90.20;;;;;;4993553;28;20038;-74
2021/05/23 00:13:24;;;;;;;2.72;1.85;;;18.30;89.40;;;;;;5000951;28;20137;-74
2021/05/23 00:16:01;;;;;;;4.47;1.70;;;18.40;87.90;;;;;;4999816;28;20429;-75
2021/05/23 00:18:31;;;;;;;2.53;1.70;;;18.30;88.70;;;;;;4997380;28;20027;-77
2021/05/23 00:21:00;;;;;;;4.18;2.00;;;18.00;90.30;;;;;;4996711;28;20037;-76
2021/05/23 00:23:28;;;;;;;4.32;1.63;;;17.90;91.20;;;;;;4997264;28;20022;-75
2021/05/23 00:25:56;;;;;;;4.85;1.90;;;18.10;90.70;;;;;;4991740;28;20389;-77
2021/05/23 00:28:24;;;;;;;2.50;1.83;;;18.30;90.90;;;;;;4992901;28;20042;-76
2021/05/23 00:30:52;;;;;;;3.80;1.70;;;18.40;89.70;;;;;;4998718;28;20113;-75
2021/05/23 00:33:20;;;;;;;2.80;1.42;;;18.40;89.10;;;;;;5000795;28;20034;-75
2021/05/23 00:35:47;;;;;;;6.70;3.72;;;18.40;90.30;;;;;;4994953;28;20033;-79
2021/05/23 00:38:15;;;;;;;4.03;2.65;;;18.90;90.10;;;;;;5004054;28;20354;-76
2021/05/23 00:40:43;;;;;;;4.15;1.98;;;20.10;86.30;;;;;;4994909;28;20469;-74
2021/05/23 00:43:12;;;;;;;4.53;1.73;;;21.00;84.50;;;;;;4999753;28;20057;-76
2021/05/23 00:45:40;;;;;;;3.72;2.38;;;21.70;82.50;;;;;;4996980;28;20149;-79
2021/05/23 00:48:08;;;;;;;3.03;1.58;;;21.80;81.00;;;;;;4991291;28;20404;-77
2021/05/23 00:50:36;;;;;;;2.63;1.70;;;22.10;80.60;;;;;;4990250;28;20145;-79
2021/05/23 00:53:05;;;;;;;2.40;1.40;;;21.50;81.40;;;;;;4996159;28;20121;-77
2021/05/23 00:55:33;;;;;;;2.90;0.88;;;21.10;82.90;;;;;;5001419;28;20104;-75
2021/05/23 00:58:01;;;;;;;3.33;0.60;;;20.50;84.30;;;;;;5000575;28;20038;-77
2021/05/23 01:00:45;;;;;;;3.45;0.68;;;20.20;85.30;;;;;;4996816;28;20424;-75
2021/05/23 01:03:28;;;;;;;3.70;1.10;;;20.00;84.70;;;;;;5001270;28;20117;-78
2021/05/23 01:06:06;;;;;;;3.20;1.30;;;20.20;85.30;;;;;;4999797;28;20026;-78
2021/05/23 01:08:35;;;;;;;2.08;0.65;;;20.50;84.10;;;;;;5002532;28;20041;-77
2021/05/23 01:11:09;;;;;;;2.83;0.65;;;21.30;83.50;;;;;;4998920;28;20050;-74
2021/05/23 01:13:39;;;;;;;1.25;0.68;;;21.80;81.60;;;;;;5000683;28;20377;-74
2021/05/23 01:16:06;;;;;;;2.55;1.05;;;22.20;81.60;;;;;;4995233;28;20133;-79
2021/05/23 01:19:02;;;;;;;1.83;0.70;;;22.40;80.90;;;;;;5000613;28;20048;-77
2021/05/23 01:21:33;;;;;;;1.55;0.50;;;22.30;81.60;;;;;;4997277;28;20034;-76
2021/05/23 01:24:10;;;;;;;2.25;1.00;;;22.10;79.80;;;;;;4999171;28;20387;-77
2021/05/23 01:26:48;;;;;;;1.02;0.47;;;21.40;80.30;;;;;;4994678;28;20519;-74
2021/05/23 01:29:16;;;;;;;2.30;0.60;;;21.00;83.50;;;;;;5003163;28;20033;-75
2021/05/23 01:31:45;;;;;;;3.88;0.60;;;21.10;82.90;;;;;;5004511;28;20451;-75
2021/05/23 01:34:23;;;;;;;2.25;0.73;;;21.60;81.80;;;;;;4995005;28;20034;-74
2021/05/23 01:36:54;;;;;;;4.18;1.13;;;21.90;82.00;;;;;;4988873;28;20030;-77
2021/05/23 01:39:22;;;;;;;1.08;0.82;;;22.10;79.40;;;;;;4993873;28;20018;-74
2021/05/23 01:41:51;;;;;;;1.15;0.32;;;22.00;80.50;;;;;;4999958;28;20401;-77
2021/05/23 01:44:19;;;;;;;2.95;0.63;;;22.20;81.40;;;;;;4996105;28;20022;-75
2021/05/23 01:46:47;;;;;;;1.35;0.80;;;22.60;78.40;;;;;;4997234;28;20056;-74
2021/05/23 01:49:15;;;;;;;2.67;0.43;;;22.70;78.60;;;;;;4994785;28;20037;-75
2021/05/23 01:51:42;;;;;;;0.85;0.57;;;22.60;78.60;;;;;;4998763;28;20061;-76
2021/05/23 01:54:09;;;;;;;1.48;0.93;;;23.00;78.70;;;;;;5002432;28;20033;-74
2021/05/23 01:56:38;;;;;;;1.83;0.75;;;23.70;77.80;;;;;;5002375;28;20052;-75
2021/05/23 01:59:05;;;;;;;4.70;0.60;;;23.70;76.50;;;;;;4995658;28;20089;-76
2021/05/23 02:01:33;;;;;;;2.42;0.82;;;24.00;76.10;;;;;;4996444;28;20031;-73
2021/05/23 02:04:02;;;;;;;2.47;0.63;;;24.70;74.30;;;;;;4995771;28;20389;-74
2021/05/23 02:06:30;;;;;;;0.50;0.30;;;24.60;74.00;;;;;;5002056;28;20112;-79
2021/05/23 02:08:58;;;;;;;2.40;0.30;;;24.90;74.10;;;;;;4997142;28;20038;-76
2021/05/23 02:11:26;;;;;;;2.17;0.95;;;25.60;72.80;;;;;;4998251;28;20034;-78
2021/05/23 02:13:55;;;;;;;1.13;0.40;;;26.20;69.90;;;;;;4998130;28;20477;-75
2021/05/23 02:16:22;;;;;;;1.20;0.43;;;26.70;68.40;;;;;;5004889;28;20034;-73
2021/05/23 02:18:50;;;;;;;1.20;0.22;;;27.00;66.30;;;;;;4994458;28;20048;-74
2021/05/23 02:21:17;;;;;;;2.60;0.60;;;26.40;67.80;;;;;;4997744;28;20033;-84
2021/05/23 02:23:57;;;;;;;2.80;0.50;;;26.20;69.50;;;;;;4999047;28;20033;-78
2021/05/23 02:26:25;;;;;;;1.65;0.40;;;26.30;68.90;;;;;;4993471;28;20193;-80
2021/05/23 02:28:53;;;;;;;3.10;0.40;;;26.30;71.10;;;;;;4996906;28;20109;-82
2021/05/23 02:31:22;;;;;;;1.02;0.47;;;25.90;69.80;;;;;;4992922;28;20434;-86
2021/05/23 02:33:49;;;;;;;2.13;0.30;;;25.50;70.90;;;;;;5002750;28;20030;-74
2021/05/23 02:36:16;;;;;;;1.23;0.40;;;25.20;71.50;;;;;;4994399;28;20029;-78
2021/05/23 02:38:44;;;;;;;2.38;1.13;;;24.80;71.40;;;;;;5004593;28;20029;-78
2021/05/23 02:41:11;;;;;;;1.45;0.40;;;24.60;72.10;;;;;;5000614;28;20989;-77
2021/05/23 02:43:39;;;;;;;3.03;0.30;;;24.60;72.40;;;;;;4999465;28;20116;-82
2021/05/23 02:46:06;;;;;;;1.65;0.70;;;24.20;73.60;;;;;;4995066;28;20449;-83
2021/05/23 02:48:33;;;;;;;1.58;0.30;;;24.10;74.40;;;;;;5000264;28;20385;-81
2021/05/23 02:51:02;;;;;;;4.18;0.35;;;24.00;74.00;;;;;;4997854;28;20088;-79
2021/05/23 02:53:30;;;;;;;1.50;0.40;;;24.10;77.80;;;;;;4998946;28;20584;-77
2021/05/23 02:55:58;;;;;;;2.22;0.30;;;24.30;75.10;;;;;;4990756;28;20094;-81
2021/05/23 02:58:26;;;;;;;1.75;0.22;;;24.10;72.70;;;;;;4997854;28;20420;-78
2021/05/23 03:00:53;;;;;;;2.05;0.43;;;24.10;72.70;;;;;;4992486;28;20038;-75
2021/05/23 03:03:20;;;;;;;2.40;0.57;;;24.20;72.90;;;;;;5000104;28;20109;-80
2021/05/23 03:05:50;;;;;;;1.10;0.43;;;24.00;73.00;;;;;;4994582;28;20889;-77
2021/05/23 03:08:18;;;;;;;3.88;0.52;;;23.70;74.10;;;;;;4997031;28;20042;-84
2021/05/23 03:10:49;;;;;;;2.08;0.60;;;23.60;74.70;;;;;;4997245;28;20065;-80
2021/05/23 03:13:17;;;;;;;4.45;0.43;;;23.50;75.80;;;;;;5005389;28;20152;-82
2021/05/23 03:15:44;;;;;;;1.92;0.30;;;23.40;75.70;;;;;;4999513;28;20114;-79
2021/05/23 03:18:12;;;;;;;2.75;0.60;;;23.20;75.40;;;;;;5004073;28;20031;-80
2021/05/23 03:20:41;;;;;;;2.55;0.43;;;23.20;77.00;;;;;;4999611;28;20117;-81
2021/05/23 03:23:10;;;;;;;2.80;0.95;;;23.40;76.10;;;;;;4997755;28;20401;-83
2021/05/23 03:25:37;;;;;;;2.40;0.63;;;23.60;76.00;;;;;;4988827;28;20536;-84
2021/05/23 03:28:06;;;;;;;2.80;0.93;;;23.60;74.50;;;;;;4992791;28;20034;-75
2021/05/23 03:30:37;;;;;;;2.15;0.50;;;23.40;76.10;;;;;;4998169;28;20464;-80
2021/05/23 03:33:06;;;;;;;1.75;0.57;;;23.30;78.80;;;;;;4997700;28;20030;-78
2021/05/23 03:35:35;;;;;;;0.93;0.55;;;23.00;76.30;;;;;;4991983;28;20080;-77
2021/05/23 03:38:04;;;;;;;1.90;0.32;;;23.00;78.10;;;;;;4997096;28;20022;-82
2021/05/23 03:40:36;;;;;;;2.15;0.50;;;23.10;76.70;;;;;;5000047;28;20030;-77
2021/05/23 03:43:04;;;;;;;4.20;0.30;;;22.90;77.50;;;;;;4997017;28;20056;-76
2021/05/23 03:45:32;;;;;;;1.35;0.57;;;22.80;78.40;;;;;;4995752;28;20084;-75
2021/05/23 03:47:59;;;;;;;7.22;0.88;;;22.80;78.90;;;;;;5000214;28;20050;-74
2021/05/23 03:50:30;;;;;;;2.20;0.50;;;22.80;77.80;;;;;;4991305;28;20104;-75
2021/05/23 03:52:59;;;;;;;2.38;0.45;;;22.50;78.10;;;;;;5000385;28;20029;-76
2021/05/23 03:55:27;;;;;;;2.38;0.45;;;22.40;78.10;;;;;;4995581;28;20030;-77
2021/05/23 03:57:56;;;;;;;3.38;0.75;;;22.30;78.30;;;;;;5002022;28;20077;-85
2021/05/23 04:00:26;;;;;;;3.60;0.50;;;22.20;78.40;;;;;;4995763;28;20509;-85
2021/05/23 04:02:55;;;;;;;1.05;0.28;;;22.20;79.10;;;;;;4994462;28;20057;-82
2021/05/23 04:05:25;;;;;;;4.50;0.45;;;22.10;79.00;;;;;;5003126;28;20466;-79
2021/05/23 04:07:55;;;;;;;2.00;0.52;;;22.00;79.80;;;;;;4996612;28;20086;-84
2021/05/23 04:10:26;;;;;;;1.25;0.60;;;21.80;80.50;;;;;;4994742;28;20026;-85
2021/05/23 04:12:56;;;;;;;1.88;0.43;;;21.60;80.80;;;;;;4996885;28;20488;-80
2021/05/23 04:15:24;;;;;;;3.15;0.40;;;21.50;82.20;;;;;;4994516;28;20060;-84
2021/05/23 04:17:52;;;;;;;1.88;0.50;;;21.40;81.60;;;;;;4995846;28;20029;-82
2021/05/23 04:20:21;;;;;;;1.58;0.47;;;21.40;81.70;;;;;;4995515;28;20434;-82
2021/05/23 04:22:51;;;;;;;3.80;0.70;;;21.50;82.30;;;;;;4995436;28;20047;-80
2021/05/23 04:25:21;;;;;;;1.30;0.28;;;21.60;81.80;;;;;;4991763;28;20037;-84
2021/05/23 04:27:49;;;;;;;1.92;0.60;;;21.70;81.50;;;;;;4999417;28;20521;-79
2021/05/23 04:30:20;;;;;;;3.05;0.50;;;21.80;81.10;;;;;;5001127;28;20029;-79
2021/05/23 04:32:48;;;;;;;4.20;0.63;;;22.10;80.50;;;;;;5003310;28;20029;-83
2021/05/23 04:35:17;;;;;;;1.33;0.63;;;22.20;80.00;;;;;;4995826;28;20044;-80
2021/05/23 04:37:45;;;;;;;5.97;1.10;;;22.20;80.70;;;;;;4999425;28;20050;-81
2021/05/23 04:40:14;;;;;;;1.70;0.80;;;22.00;81.40;;;;;;5002318;28;20056;-81
2021/05/23 04:42:42;;;;;;;3.00;0.75;;;22.00;81.30;;;;;;5003366;28;20060;-78
2021/05/23 04:45:10;;;;;;;1.27;0.52;;;21.80;81.30;;;;;;4997635;28;20041;-82
2021/05/23 04:47:37;;;;;;;3.85;0.82;;;21.60;81.40;;;;;;5002856;28;20029;-82
2021/05/23 04:50:06;;;;;;;1.50;0.40;;;21.40;81.80;;;;;;4997183;28;20176;-80
2021/05/23 04:52:33;;;;;;;1.20;0.40;;;21.20;82.50;;;;;;4995719;28;20080;-80
2021/05/23 04:55:03;;;;;;;2.30;0.63;;;21.10;82.50;;;;;;4994255;28;20022;-79
2021/05/23 04:57:31;;;;;;;2.75;0.77;;;21.00;83.30;;;;;;4997489;28;20041;-82
2021/05/23 05:00:00;;;;;;;1.38;0.38;;;21.00;83.30;;;;;;5004797;28;20042;-76
2021/05/23 05:02:28;;;;;;;2.53;0.75;;;21.00;83.40;;;;;;4995820;28;20064;-84
2021/05/23 05:04:55;;;;;;;0.93;0.60;;;21.00;83.30;;;;;;5002286;28;20109;-86
2021/05/23 05:07:23;;;;;;;1.42;1.05;;;20.90;83.30;;;;;;5003886;28;20026;-82
2021/05/23 05:09:50;;;;;;;4.25;0.50;;;20.90;83.70;;;;;;5003033;28;20043;-85
2021/05/23 05:12:20;;;;;;;2.95;0.77;;;20.70;83.70;;;;;;5002536;28;20034;-83
2021/05/23 05:14:47;;;;;;;1.10;0.50;;;20.70;84.20;;;;;;4999249;28;20097;-79
2021/05/23 05:17:14;;;;;;;4.88;0.50;;;20.70;84.20;;;;;;5001463;28;20029;-75
2021/05/23 05:19:42;;;;;;;2.70;0.47;;;20.60;84.60;;;;;;4993412;28;20072;-74
2021/05/23 05:22:09;;;;;;;2.20;0.68;;;20.50;85.10;;;;;;4996167;28;20026;-78
2021/05/23 05:24:37;;;;;;;2.45;1.13;;;20.50;85.90;;;;;;4991287;28;20405;-79
2021/05/23 05:27:04;;;;;;;3.25;1.27;;;20.40;85.70;;;;;;4992272;28;20037;-75
2021/05/23 05:29:32;;;;;;;2.08;0.75;;;20.40;85.50;;;;;;4996998;28;20022;-76
2021/05/23 05:32:01;;;;;;;1.65;0.52;;;20.30;85.70;;;;;;5001268;28;20037;-78
2021/05/23 05:34:28;;;;;;;1.77;0.57;;;20.30;85.40;;;;;;5002121;28;20778;-78
2021/05/23 05:36:56;;;;;;;0.52;0.30;;;20.20;85.80;;;;;;4998327;28;20049;-77
2021/05/23 05:39:23;;;;;;;3.00;0.68;;;20.10;85.90;;;;;;4998586;28;20750;-79
2021/05/23 05:41:51;;;;;;;0.80;0.30;;;20.10;86.10;;;;;;4994347;28;20487;-78
2021/05/23 05:44:18;;;;;;;2.78;0.65;;;20.10;86.80;;;;;;5005109;28;20033;-79
2021/05/23 05:46:45;;;;;;;2.33;0.80;;;20.00;87.20;;;;;;5001549;28;20036;-76
2021/05/23 05:49:13;;;;;;;5.22;1.55;;;20.00;87.70;;;;;;5003461;28;20116;-75
2021/05/23 05:51:40;;;;;;;3.97;0.70;;;19.90;88.50;;;;;;4994979;28;20129;-74
2021/05/23 05:54:08;;;;;;;4.82;0.88;;;19.90;88.50;;;;;;5003564;28;20022;-75
2021/05/23 05:56:37;;;;;;;4.60;0.77;;;19.70;89.20;;;;;;4991015;28;20027;-76
2021/05/23 05:59:05;;;;;;;5.47;0.90;;;19.80;89.50;;;;;;4997408;28;20374;-72
2021/05/23 06:01:33;;;;;;;8.20;0.65;;;19.70;90.00;;;;;;4996669;28;20041;-78
2021/05/23 06:04:00;;;;;;;5.35;1.48;;;19.60;90.10;;;;;;4996831;28;20037;-80
2021/05/23 06:06:27;;;;;;;4.55;1.27;;;19.60;90.30;;;;;;4997333;28;20049;-78
2021/05/23 06:08:55;;;;;;;2.42;0.77;;;19.70;90.40;;;;;;5000045;28;20109;-77
2021/05/23 06:11:22;;;;;;;2.22;0.57;;;19.60;90.50;;;;;;4995597;28;20045;-75
2021/05/23 06:13:50;;;;;;;4.03;0.98;;;19.50;90.60;;;;;;4999894;28;20077;-75
2021/05/23 06:16:17;;;;;;;2.22;0.70;;;19.50;90.70;;;;;;4992694;28;20121;-76
2021/05/23 06:18:45;;;;;;;2.13;0.40;;;19.40;90.70;;;;;;5001115;28;20022;-76
2021/05/23 06:21:13;;;;;;;4.90;0.70;;;19.30;90.90;;;;;;4992892;28;20039;-81
2021/05/23 06:23:40;;;;;;;4.18;1.00;;;19.30;91.10;;;;;;4999168;28;20022;-74
2021/05/23 06:26:13;;;;;;;2.10;0.77;;;19.20;91.30;;;;;;5003482;28;20026;-80
2021/05/23 06:28:43;;;;;;;0.75;0.40;;;19.20;91.60;;;;;;4993359;28;20034;-78
2021/05/23 06:31:11;;;;;;;3.45;0.45;;;19.10;91.70;;;;;;5002395;28;20093;-78
2021/05/23 06:33:38;;;;;;;1.20;0.38;;;19.10;91.90;;;;;;5000479;28;20481;-76
2021/05/23 06:36:06;;;;;;;1.88;0.68;;;19.00;92.20;;;;;;4996901;28;20388;-74
2021/05/23 06:38:33;;;;;;;3.08;0.40;;;19.00;92.40;;;;;;4996643;28;20034;-80
2021/05/23 06:41:01;;;;;;;1.98;0.50;;;18.90;92.70;;;;;;4996390;28;20079;-75
2021/05/23 06:43:28;;;;;;;2.92;0.50;;;18.90;92.80;;;;;;4993697;28;20445;-76
2021/05/23 06:45:55;;;;;;;1.73;0.20;;;18.80;93.00;;;;;;4994124;28;20101;-77
2021/05/23 06:48:23;;;;;;;1.77;0.70;;;18.70;93.10;;;;;;5001754;28;20121;-75
2021/05/23 06:50:51;;;;;;;1.05;0.30;;;18.70;93.40;;;;;;4991188;28;20069;-75
2021/05/23 06:53:19;;;;;;;4.30;2.00;;;18.60;93.50;;;;;;4998619;28;20072;-75
2021/05/23 06:55:47;;;;;;;6.15;0.95;;;18.50;93.70;;;;;;4994166;28;20038;-76
2021/05/23 06:58:14;;;;;;;2.30;0.73;;;18.50;93.90;;;;;;5002155;28;20392;-76
2021/05/23 07:00:41;;;;;;;2.45;1.00;;;18.50;94.00;;;;;;4998442;28;20085;-74
2021/05/23 07:03:09;;;;;;;3.88;1.17;;;18.40;94.20;;;;;;4998142;28;20027;-75
2021/05/23 07:05:37;;;;;;;2.25;0.90;;;18.30;94.40;;;;;;4991675;28;20113;-78
2021/05/23 07:08:06;;;;;;;2.45;0.88;;;18.20;94.50;;;;;;4993468;28;20038;-77
2021/05/23 07:10:33;;;;;;;3.13;1.10;;;18.10;94.60;;;;;;4997931;28;20096;-77
2021/05/23 07:13:01;;;;;;;2.78;1.17;;;18.00;94.80;;;;;;4996957;28;20022;-76
2021/05/23 07:15:28;;;;;;;5.72;1.38;;;18.00;94.90;;;;;;4997797;28;20058;-78
2021/05/23 07:17:58;;;;;;;1.88;1.10;;;17.90;94.90;;;;;;4998645;28;20035;-79
2021/05/23 07:20:25;;;;;;;2.15;1.17;;;17.90;95.10;;;;;;4993281;28;20029;-81
2021/05/23 07:22:54;;;;;;;7.03;2.95;;;17.80;95.10;;;;;;4998344;28;20034;-79
2021/05/23 07:25:22;;;;;;;8.63;3.95;;;17.80;95.20;;;;;;4991924;28;20401;-78
2021/05/23 07:27:50;;;;;;;5.00;2.38;;;17.70;95.30;;;;;;4996745;28;20026;-78
2021/05/23 07:30:17;;;;;;;9.05;4.55;;;17.60;95.40;;;;;;4996781;28;20050;-77
2021/05/23 07:32:45;;;;;;;8.40;3.78;;;17.60;95.40;;;;;;5002117;28;20030;-78
2021/05/23 07:35:13;;;;;;;11.20;4.40;;;17.40;95.50;;;;;;4992240;28;20023;-78
2021/05/23 07:37:41;;;;;;;10.93;6.32;;;17.40;95.60;;;;;;5003858;28;20050;-80
2021/05/23 07:40:09;;;;;;;10.57;5.68;;;17.30;95.70;;;;;;4999676;28;20080;-77
2021/05/23 07:42:36;;;;;;;7.57;5.20;;;17.20;96.00;;;;;;5005510;28;20021;-77
2021/05/23 07:45:05;;;;;;;14.55;6.57;;;17.30;95.90;;;;;;4994987;28;20118;-77
2021/05/23 07:47:32;;;;;;;9.68;5.47;;;17.30;96.00;;;;;;4994970;28;20029;-78
2021/05/23 07:50:00;;;;;;;7.60;3.28;;;17.30;96.10;;;;;;4992098;28;20042;-80
2021/05/23 07:52:28;;;;;;;6.90;2.33;;;17.20;96.30;;;;;;4993145;28;20559;-78
2021/05/23 07:54:55;;;;;;;3.17;1.73;;;17.20;96.40;;;;;;4995809;28;20366;-76
2021/05/23 07:57:23;;;;;;;3.22;1.55;;;17.10;96.60;;;;;;5001002;28;20020;-81
2021/05/23 07:59:50;;;;;;;3.55;1.73;;;17.10;96.50;;;;;;4993801;28;20041;-80
2021/05/23 08:02:18;;;;;;;4.95;1.65;;;17.00;96.60;;;;;;4992416;28;20019;-79
2021/05/23 08:04:45;;;;;;;3.60;1.77;;;16.90;96.70;;;;;;4989114;28;20552;-79
2021/05/23 08:07:13;;;;;;;3.90;2.15;;;16.90;96.60;;;;;;4985623;28;20030;-80
2021/05/23 08:09:40;;;;;;;4.30;2.65;;;16.90;96.80;;;;;;4991167;28;20056;-79
2021/05/23 08:12:08;;;;;;;7.95;2.03;;;16.80;96.90;;;;;;4994118;28;20042;-80
2021/05/23 08:14:35;;;;;;;5.40;2.10;;;16.70;97.00;;;;;;4993145;28;20038;-78
2021/05/23 08:17:03;;;;;;;2.38;1.30;;;16.70;97.20;;;;;;4993890;28;20137;-79
2021/05/23 08:19:30;;;;;;;4.45;1.02;;;16.60;97.30;;;;;;4995388;28;20074;-80
2021/05/23 08:21:57;;;;;;;3.20;1.55;;;16.50;97.40;;;;;;5003138;28;20111;-80
2021/05/23 08:24:25;;;;;;;3.10;0.80;;;16.40;97.50;;;;;;4997344;28;20026;-80
2021/05/23 08:26:52;;;;;;;0.75;0.60;;;16.40;97.50;;;;;;4990971;28;20027;-79
2021/05/23 08:29:20;;;;;;;1.88;0.43;;;16.30;97.90;;;;;;4994541;28;20370;-80
2021/05/23 08:31:49;;;;;;;2.03;0.70;;;16.30;97.70;;;;;;4997175;28;20141;-80
2021/05/23 08:34:16;;;;;;;2.90;0.63;;;16.20;97.90;;;;;;5000588;28;20101;-81
2021/05/23 08:36:47;;;;;;;2.88;1.13;;;16.10;98.00;;;;;;4995597;28;20049;-79
2021/05/23 08:39:15;;;;;;;0.80;0.50;;;16.10;97.90;;;;;;4995490;28;20026;-80
2021/05/23 08:41:48;;;;;;;2.38;0.52;;;16.10;98.00;;;;;;4992727;28;20374;-79
2021/05/23 08:44:21;;;;;;;1.48;0.40;;;16.00;97.90;;;;;;4993945;28;20062;-79
2021/05/23 08:46:50;;;;;;;1.55;0.32;;;16.00;98.00;;;;;;4988469;28;20078;-80
2021/05/23 08:49:25;;;;;;;0.85;0.32;;;15.90;98.10;;;;;;4997164;28;20042;-78
2021/05/23 08:51:53;;;;;;;1.55;0.47;;;15.90;98.20;;;;;;4995842;28;20496;-83
2021/05/23 08:54:21;;;;;;;3.38;0.38;;;15.80;98.20;;;;;;4991204;28;20068;-79
2021/05/23 08:56:51;;;;;;;2.55;0.60;;;15.90;98.30;;;;;;4999403;28;20032;-78
2021/05/23 08:59:19;;;;;;;3.30;1.08;;;15.80;98.40;;;;;;4996158;28;20422;-78
2021/05/23 09:01:47;;;;;;;1.92;0.98;;;15.80;98.50;;;;;;4991705;28;20438;-80
2021/05/23 09:04:21;;;;;;;5.40;0.50;;;15.70;98.50;;;;;;4990117;28;20022;-79
2021/05/23 09:06:48;;;;;;;3.25;0.50;;;15.70;98.60;;;;;;4992247;28;20033;-80
2021/05/23 09:09:17;;;;;;;2.40;0.60;;;15.70;98.90;;;;;;4989237;28;20042;-79
2021/05/23 09:12:01;;;;;;;2.58;0.98;;;15.60;98.70;;;;;;4990746;28;20045;-80
2021/05/23 09:14:35;;;;;;;1.23;0.50;;;15.60;98.80;;;;;;4996884;28;20115;-80
2021/05/23 09:17:06;;;;;;;4.32;0.93;;;15.60;98.90;;;;;;4996491;28;20033;-80
2021/05/23 09:19:42;;;;;;;1.40;1.30;;;15.60;98.80;;;;;;4998991;28;20038;-81
2021/05/23 09:22:13;;;;;;;1.58;1.15;;;15.60;98.80;;;;;;4995560;28;20062;-79
2021/05/23 09:25:01;;;;;;;2.85;1.65;;;15.50;98.80;;;;;;4999459;28;20052;-81
2021/05/23 09:27:33;;;;;;;3.55;2.33;;;15.50;98.90;;;;;;5005759;28;20037;-81
2021/05/23 09:30:02;;;;;;;3.45;1.80;;;15.40;99.00;;;;;;4999813;28;20038;-82
2021/05/23 09:32:29;;;;;;;5.45;2.42;;;15.40;99.20;;;;;;5001709;28;20053;-79
2021/05/23 09:35:09;;;;;;;6.50;3.25;;;15.30;99.20;;;;;;4993544;28;20046;-81
2021/05/23 09:37:37;;;;;;;6.65;3.90;;;15.30;99.40;;;;;;5002036;28;20026;-77
2021/05/23 09:40:22;;;;;;;11.30;4.72;;;15.20;99.50;;;;;;4996231;28;20055;-76
2021/05/23 09:42:55;;;;;;;6.23;4.07;;;15.10;99.60;;;;;;4987500;28;20093;-78
2021/05/23 09:45:24;;;;;;;10.30;6.47;;;15.00;99.70;;;;;;4992933;28;20465;-76
2021/05/23 09:47:57;;;;;;;7.68;6.45;;;15.00;99.60;;;;;;4990883;28;20092;-77
2021/05/23 09:50:41;;;;;;;7.85;5.53;;;14.90;99.70;;;;;;4996197;28;20038;-77
2021/05/23 09:53:31;;;;;;;7.63;4.22;;;14.90;99.70;;;;;;4994522;28;20046;-77
2021/05/23 09:56:04;;;;;;;7.25;3.58;;;14.90;99.70;;;;;;4990497;28;20022;-76
2021/05/23 09:58:37;;;;;;;6.45;3.30;;;14.80;99.60;;;;;;5004364;28;20030;-76
2021/05/23 10:01:06;;;;;;;4.07;3.58;;;14.80;99.60;;;;;;5002139;28;20440;-79
2021/05/23 10:03:36;;;;;;;5.75;4.03;;;14.80;99.70;;;;;;5000342;28;20287;-77
2021/05/23 10:06:05;;;;;;;4.93;2.58;;;14.70;99.70;;;;;;4986151;28;21632;-77
2021/05/23 10:08:32;;;;;;;4.40;3.03;;;14.70;99.70;;;;;;4991888;28;20430;-78
2021/05/23 10:11:00;;;;;;;3.17;2.13;;;14.60;99.70;;;;;;4997537;28;20030;-77
2021/05/23 10:13:28;;;;;;;5.00;2.50;;;14.60;99.60;;;;;;4997253;28;20034;-77
2021/05/23 10:15:56;;;;;;;3.13;1.95;;;14.60;99.70;;;;;;4989867;28;20022;-78
2021/05/23 10:18:28;;;;;;;4.72;1.92;;;14.70;99.70;;;;;;4992642;28;20520;-78
2021/05/23 10:20:58;;;;;;;5.15;1.30;;;14.60;99.60;;;;;;4990904;28;20030;-78
2021/05/23 10:23:34;;;;;;;3.22;1.33;;;14.60;99.70;;;;;;5007530;28;20027;-77
2021/05/23 10:26:04;;;;;;;3.42;1.15;;;14.60;99.70;;;;;;5005249;28;20104;-78
2021/05/23 10:28:37;;;;;;;4.30;1.65;;;14.50;99.60;;;;;;4996071;28;20049;-77
2021/05/23 10:31:05;;;;;;;2.33;1.58;;;14.50;99.80;;;;;;4990385;28;20030;-77
2021/05/23 10:33:33;;;;;;;2.85;1.10;;;14.50;99.70;;;;;;4992379;28;20833;-77
2021/05/23 10:36:00;;;;;;;6.32;2.35;;;14.40;99.90;;;;;;4992463;28;20037;-78
2021/05/23 10:38:28;;;;;;;4.13;2.03;;;14.40;99.80;;;;;;4993193;28;20018;-78
2021/05/23 10:41:04;;;;;;;4.05;1.70;;;14.40;99.90;;;;;;4992114;28;20081;-79
2021/05/23 10:43:34;;;;;;;3.58;1.20;;;14.30;99.90;;;;;;4994003;28;20029;-78
2021/05/23 10:46:13;;;;;;;2.47;1.23;;;14.30;99.90;;;;;;4992226;28;20037;-77
2021/05/23 10:48:54;;;;;;;3.75;1.10;;;14.30;99.90;;;;;;4994066;28;20424;-75
2021/05/23 10:51:22;;;;;;;4.10;1.48;;;14.30;99.90;;;;;;4989536;28;20046;-78
2021/05/23 10:53:51;;;;;;;2.20;1.10;;;14.30;99.90;;;;;;4996138;28;20026;-77
2021/05/23 10:56:29;;;;;;;2.17;1.38;;;14.30;99.90;;;;;;4991993;28;20026;-77
2021/05/23 10:59:00;;;;;;;3.58;1.25;;;14.30;99.90;;;;;;4996152;28;20536;-77
2021/05/23 11:01:45;;;;;;;1.85;1.13;;;14.30;99.90;;;;;;4994612;28;20030;-77
2021/05/23 11:04:20;;;;;;;2.28;1.63;;;14.20;99.90;;;;;;4999627;28;20075;-77
2021/05/23 11:06:49;;;;;;;1.93;1.20;;;14.20;99.90;;;;;;4990929;28;20092;-77
2021/05/23 11:09:23;;;;;;;4.28;1.33;;;14.20;99.90;;;;;;4996907;28;20368;-76
2021/05/23 11:11:50;;;;;;;3.53;1.70;;;14.20;99.90;;;;;;4988706;28;20057;-77
2021/05/23 11:14:23;;;;;;;2.25;1.20;;;14.20;99.90;;;;;;4990565;28;20030;-77
2021/05/23 11:16:51;;;;;;;3.35;1.75;;;14.30;99.90;;;;;;4992709;28;20030;-79
2021/05/23 11:19:19;;;;;;;2.97;1.88;;;14.30;99.90;;;;;;4994170;28;20105;-78
2021/05/23 11:21:48;;;;;;;3.80;2.30;;;14.30;99.90;;;;;;4992112;28;20097;-81
2021/05/23 11:24:17;;;;;;;3.65;1.92;;;14.30;99.90;;;;;;4992964;28;20143;-79
2021/05/23 11:26:45;;;;;;;4.53;1.48;;;14.30;99.90;;;;;;4992343;28;20099;-79
2021/05/23 11:29:12;;;;;;;4.60;2.60;;;14.30;99.90;;;;;;4999893;28;20041;-79
2021/05/23 11:31:48;;;;;;;5.57;1.88;;;14.30;99.90;;;;;;4993823;28;20046;-78
2021/05/23 11:34:16;;;;;;;;;;;14.20;99.90;;;;;;4999263;28;20031;-80
2021/05/23 11:36:43;;;;;;;3.05;2.15;;;14.20;99.90;;;;;;4995393;28;19914;-83
2021/05/23 11:39:13;;;;;;;2.58;1.48;;;14.10;99.90;;;;;;4997473;28;20054;-78
2021/05/23 11:41:41;;;;;;;3.22;1.33;;;14.10;99.90;;;;;;4992325;28;20108;-76
2021/05/23 11:44:12;;;;;;;4.43;1.45;;;14.10;99.90;;;;;;4993670;28;20110;-78
2021/05/23 11:46:41;;;;;;;4.25;1.20;;;14.10;99.90;;;;;;4993284;28;20100;-77
2021/05/23 11:49:18;;;;;;;6.38;1.48;;;14.20;99.90;;;;;;4989993;28;20026;-78
2021/05/23 11:51:45;;;;;;;2.30;1.13;;;14.20;99.90;;;;;;4997072;28;20131;-76
2021/05/23 11:54:13;;;;;;;2.13;0.90;;;14.20;99.90;;;;;;4997309;28;20964;-78
2021/05/23 11:56:42;;;;;;;3.58;1.00;;;14.30;99.90;;;;;;4991312;28;20041;-82
2021/05/23 11:59:10;;;;;;;2.53;1.13;;;14.20;99.90;;;;;;5000604;28;20037;-81
2021/05/23 12:01:39;;;;;;;3.88;1.25;;;14.20;99.90;;;;;;4993255;28;20523;-80
2021/05/23 12:04:11;;;;;;;4.13;1.15;;;14.20;99.90;;;;;;4994474;28;20490;-80
2021/05/23 12:06:51;;;;;;;2.92;1.10;;;14.20;99.90;;;;;;4985744;28;20037;-78
2021/05/23 12:09:21;;;;;;;4.13;1.23;;;14.20;99.90;;;;;;4997205;28;20095;-80
2021/05/23 12:11:56;;;;;;;1.48;0.80;;;14.20;99.90;;;;;;4995887;28;20034;-79
2021/05/23 12:14:38;;;;;;;2.77;0.80;;;14.20;99.90;;;;;;5001549;28;20382;-79
2021/05/23 12:17:15;;;;;;;3.08;1.27;;;14.10;99.90;;;;;;4993729;28;20034;-78
2021/05/23 12:22:28;;;;;;;3.63;1.23;;;14.00;99.90;;;;;;5000319;28;20385;-79
2021/05/23 12:25:00;;;;;;;3.33;1.58;;;14.00;99.90;;;;;;4988198;28;20366;-80
2021/05/23 12:27:33;;;;;;;3.72;1.35;;;14.00;99.90;;;;;;4998344;28;20065;-80
2021/05/23 12:30:28;;;;;;;3.08;1.20;;;13.90;99.90;;;;;;4991584;28;20073;-80
2021/05/23 12:33:01;;;;;;;3.60;1.10;;;13.90;99.90;;;;;;4989124;28;20461;-80
2021/05/23 12:35:36;;;;;;;2.65;2.13;;;13.90;99.90;;;;;;4994852;28;20030;-78
2021/05/23 12:38:06;;;;;;;2.28;1.15;;;13.90;99.90;;;;;;4991125;28;20026;-79
2021/05/23 12:40:40;;;;;;;4.50;1.05;;;13.90;99.90;;;;;;4994454;28;20042;-79
2021/05/23 12:43:20;;;;;;;3.30;1.55;;;13.90;99.90;;;;;;4994251;28;20031;-79
2021/05/23 12:46:00;;;;;;;2.20;0.98;;;13.90;99.90;;;;;;4988680;28;20758;-79
2021/05/23 12:48:39;;;;;;;2.15;1.20;;;13.90;99.90;;;;;;4998915;28;20041;-78
2021/05/23 12:51:14;;;;;;;4.22;1.73;;;13.80;99.90;;;;;;4999381;28;20038;-79
2021/05/23 12:53:50;;;;;;;3.67;1.55;;;13.80;99.90;;;;;;5000868;28;20072;-79
2021/05/23 12:56:30;;;;;;;3.20;1.38;;;13.70;99.90;;;;;;4999290;28;20130;-79
2021/05/23 12:59:04;;;;;;;4.72;1.60;;;13.70;99.90;;;;;;5002313;28;20038;-80
2021/05/23 13:01:38;;;;;;;3.92;1.83;;;13.60;99.90;;;;;;4999434;28;20027;-79
2021/05/23 13:04:08;;;;;;;2.55;1.90;;;13.60;99.90;;;;;;5002569;28;20469;-77